ISR172 LEBL-LLBG
Flight info
| Callsign | ISR172 |
|---|---|
| Flight time | N/A |
| Altitude | 35000 |
| Route | DIPES N725 OSPOK DCT NOLVI DCT ORKUM/N0431F340 DCT ELSAG DCT ALG/N0434F350 DCT DIRED DCT LODPA DCT CRN DCT ADREN DCT TOMGI DCT RUTOM UM601 TRL DCT VANZA DCT PIKOG L609 ZUKKO |
| Aircraft | A320/M-SDE2FGHIJ1LORVWY/SB1 |
Departure
| Time | N/A |
|---|---|
| Airport | Josep Tarradellas Barcelona-El Prat Airport (LEBL) |
Arrival
| Time | 2026-05-04 18:43 |
|---|---|
| Airport | Ben Gurion International Airport (LLBG) |
| Time | Latitude | Longitude | Altitude | Speed | Heading |
|---|---|---|---|---|---|
| 2026-05-04 15:47 | 40.56625 | 8.67973 | 35031 ft | 516 kts | 103° |
| 2026-05-04 15:47 | 40.55280 | 8.77253 | 35044 ft | 516 kts | 103° |
| 2026-05-04 15:48 | 40.53934 | 8.86525 | 35047 ft | 516 kts | 103° |
| 2026-05-04 15:48 | 40.51885 | 9.00467 | 35066 ft | 516 kts | 103° |
| 2026-05-04 15:49 | 40.50519 | 9.09718 | 35052 ft | 516 kts | 103° |
| 2026-05-04 15:49 | 40.49142 | 9.18976 | 35068 ft | 516 kts | 103° |
| 2026-05-04 15:50 | 40.47763 | 9.28233 | 35070 ft | 516 kts | 103° |
| 2026-05-04 15:50 | 40.46374 | 9.37466 | 35068 ft | 515 kts | 103° |
| 2026-05-04 15:51 | 40.44980 | 9.46696 | 35065 ft | 516 kts | 102° |
| 2026-05-04 15:51 | 40.43576 | 9.55914 | 35077 ft | 515 kts | 102° |
| 2026-05-04 15:52 | 40.42168 | 9.65137 | 35083 ft | 514 kts | 102° |
| 2026-05-04 15:52 | 40.40763 | 9.74334 | 35082 ft | 514 kts | 102° |
| 2026-05-04 15:53 | 40.39349 | 9.83515 | 35072 ft | 514 kts | 102° |
| 2026-05-04 15:53 | 40.37915 | 9.92701 | 35076 ft | 513 kts | 102° |
| 2026-05-04 15:54 | 40.36710 | 10.00357 | 35078 ft | 513 kts | 102° |
| 2026-05-04 15:54 | 40.35036 | 10.11001 | 35080 ft | 512 kts | 102° |
| 2026-05-04 15:55 | 40.33830 | 10.18656 | 35082 ft | 512 kts | 102° |
| 2026-05-04 15:55 | 40.32381 | 10.27817 | 35082 ft | 513 kts | 102° |
| 2026-05-04 15:56 | 40.30925 | 10.36957 | 35082 ft | 513 kts | 102° |
| 2026-05-04 15:56 | 40.29454 | 10.46102 | 35088 ft | 513 kts | 102° |
| 2026-05-04 15:57 | 40.27973 | 10.55253 | 35090 ft | 513 kts | 103° |
| 2026-05-04 15:57 | 40.26491 | 10.64384 | 35087 ft | 513 kts | 102° |
| 2026-05-04 15:58 | 40.25001 | 10.73520 | 35093 ft | 513 kts | 102° |
| 2026-05-04 15:58 | 40.23512 | 10.82657 | 35096 ft | 513 kts | 102° |
| 2026-05-04 15:59 | 40.22005 | 10.91808 | 35101 ft | 513 kts | 103° |
| 2026-05-04 15:59 | 40.20491 | 11.00930 | 35102 ft | 513 kts | 103° |
| 2026-05-04 16:00 | 40.18960 | 11.10044 | 35101 ft | 513 kts | 103° |
| 2026-05-04 16:00 | 40.17426 | 11.19159 | 35103 ft | 514 kts | 103° |
| 2026-05-04 16:01 | 40.15890 | 11.28273 | 35107 ft | 514 kts | 103° |
| 2026-05-04 16:01 | 40.14341 | 11.37459 | 35107 ft | 513 kts | 103° |
| 2026-05-04 16:02 | 40.12796 | 11.46558 | 35112 ft | 513 kts | 103° |
| 2026-05-04 16:03 | 40.10461 | 11.60211 | 35114 ft | 514 kts | 103° |
| 2026-05-04 16:03 | 40.08894 | 11.69319 | 35122 ft | 514 kts | 103° |
| 2026-05-04 16:04 | 40.07319 | 11.78426 | 35125 ft | 514 kts | 103° |
| 2026-05-04 16:04 | 40.04943 | 11.92090 | 35133 ft | 515 kts | 103° |
| 2026-05-04 16:05 | 40.03361 | 12.01179 | 35130 ft | 515 kts | 103° |
| 2026-05-04 16:06 | 40.00948 | 12.14838 | 35127 ft | 515 kts | 103° |
| 2026-05-04 16:07 | 39.97718 | 12.33040 | 35130 ft | 515 kts | 103° |
| 2026-05-04 16:08 | 39.94444 | 12.51273 | 35128 ft | 515 kts | 103° |
| 2026-05-04 16:09 | 39.90328 | 12.73979 | 35139 ft | 515 kts | 103° |
| 2026-05-04 16:10 | 39.86999 | 12.92120 | 35136 ft | 516 kts | 103° |
| 2026-05-04 16:11 | 39.83634 | 13.10298 | 35139 ft | 516 kts | 103° |
| 2026-05-04 16:12 | 39.78524 | 13.37603 | 35119 ft | 520 kts | 102° |
| 2026-05-04 16:13 | 39.75055 | 13.55898 | 35113 ft | 521 kts | 102° |
| 2026-05-04 16:14 | 39.71557 | 13.74203 | 35133 ft | 523 kts | 102° |
| 2026-05-04 16:16 | 39.67121 | 13.97162 | 35134 ft | 524 kts | 101° |
| 2026-05-04 16:17 | 39.62651 | 14.20083 | 35141 ft | 525 kts | 102° |
| 2026-05-04 16:18 | 39.59023 | 14.38437 | 35138 ft | 525 kts | 101° |
| 2026-05-04 16:19 | 39.54392 | 14.61338 | 35139 ft | 526 kts | 103° |
| 2026-05-04 16:20 | 39.49420 | 14.84198 | 35150 ft | 526 kts | 103° |
| 2026-05-04 16:22 | 39.44483 | 15.06959 | 35157 ft | 525 kts | 103° |
| 2026-05-04 16:23 | 39.38510 | 15.34151 | 35170 ft | 524 kts | 103° |
| 2026-05-04 16:25 | 39.32463 | 15.61255 | 35181 ft | 523 kts | 103° |
| 2026-05-04 16:26 | 39.25373 | 15.92710 | 35200 ft | 520 kts | 103° |
| 2026-05-04 16:28 | 39.20604 | 16.13620 | 35195 ft | 519 kts | 103° |
| 2026-05-04 16:29 | 39.13542 | 16.44826 | 35196 ft | 517 kts | 101° |
| 2026-05-04 16:31 | 39.08745 | 16.67146 | 35187 ft | 517 kts | 102° |
| 2026-05-04 16:32 | 39.02847 | 16.93814 | 35132 ft | 516 kts | 102° |
| 2026-05-04 16:33 | 38.98886 | 17.11544 | 35132 ft | 516 kts | 103° |
| 2026-05-04 16:34 | 38.95700 | 17.24827 | 35129 ft | 516 kts | 103° |
| 2026-05-04 16:35 | 38.89298 | 17.51233 | 35147 ft | 516 kts | 103° |
| 2026-05-04 16:36 | 38.86085 | 17.64426 | 35154 ft | 516 kts | 103° |
| 2026-05-04 16:37 | 38.82867 | 17.77577 | 35168 ft | 516 kts | 104° |
| 2026-05-04 16:38 | 38.78523 | 17.95101 | 35151 ft | 514 kts | 104° |
| 2026-05-04 16:39 | 38.73127 | 18.16918 | 35149 ft | 514 kts | 104° |
| 2026-05-04 16:40 | 38.68732 | 18.34342 | 35148 ft | 514 kts | 104° |
| 2026-05-04 16:41 | 38.63191 | 18.56066 | 35165 ft | 512 kts | 104° |
| 2026-05-04 16:43 | 38.57621 | 18.77725 | 35159 ft | 511 kts | 104° |
| 2026-05-04 16:43 | 38.54286 | 18.90597 | 35174 ft | 508 kts | 105° |
| 2026-05-04 16:45 | 38.47609 | 19.16158 | 35175 ft | 504 kts | 105° |
| 2026-05-04 16:46 | 38.42036 | 19.37273 | 35155 ft | 501 kts | 105° |
| 2026-05-04 16:47 | 38.37552 | 19.54099 | 35159 ft | 501 kts | 105° |
| 2026-05-04 16:48 | 38.33047 | 19.70918 | 35143 ft | 502 kts | 105° |
| 2026-05-04 16:49 | 38.28481 | 19.87791 | 35147 ft | 503 kts | 105° |
| 2026-05-04 16:50 | 38.23930 | 20.04618 | 35142 ft | 504 kts | 105° |
| 2026-05-04 16:51 | 38.20463 | 20.17251 | 35158 ft | 505 kts | 105° |
| 2026-05-04 16:52 | 38.15829 | 20.34130 | 35144 ft | 506 kts | 105° |
| 2026-05-04 16:53 | 38.12332 | 20.46773 | 35142 ft | 506 kts | 105° |
| 2026-05-04 16:54 | 38.06542 | 20.63147 | 35146 ft | 509 kts | 112° |
| 2026-05-04 16:55 | 37.97334 | 20.87510 | 35156 ft | 510 kts | 112° |
| 2026-05-04 16:56 | 37.89661 | 21.07678 | 35149 ft | 510 kts | 112° |
| 2026-05-04 16:57 | 37.84998 | 21.19838 | 35160 ft | 510 kts | 112° |
| 2026-05-04 16:58 | 37.78778 | 21.35999 | 35140 ft | 511 kts | 112° |
| 2026-05-04 17:00 | 37.69931 | 21.58873 | 35143 ft | 512 kts | 112° |
| 2026-05-04 17:01 | 37.62063 | 21.79080 | 35153 ft | 512 kts | 112° |
| 2026-05-04 17:02 | 37.55741 | 21.95197 | 35138 ft | 513 kts | 112° |
| 2026-05-04 17:03 | 37.50984 | 22.07278 | 35138 ft | 514 kts | 112° |
| 2026-05-04 17:03 | 37.46205 | 22.19365 | 35159 ft | 514 kts | 112° |
| 2026-05-04 17:04 | 37.39930 | 22.35507 | 35127 ft | 510 kts | 106° |
| 2026-05-04 17:05 | 37.34879 | 22.52192 | 35136 ft | 511 kts | 106° |
| 2026-05-04 17:06 | 37.31061 | 22.64679 | 35131 ft | 511 kts | 106° |
| 2026-05-04 17:07 | 37.27664 | 22.75773 | 35133 ft | 511 kts | 106° |
| 2026-05-04 17:07 | 37.24667 | 22.85497 | 35145 ft | 511 kts | 107° |
| 2026-05-04 17:08 | 37.20814 | 22.97987 | 35134 ft | 512 kts | 107° |
| 2026-05-04 17:09 | 37.18237 | 23.06305 | 35132 ft | 512 kts | 107° |
| 2026-05-04 17:09 | 37.15638 | 23.14677 | 35142 ft | 512 kts | 107° |
| 2026-05-04 17:10 | 37.09130 | 23.35467 | 35123 ft | 513 kts | 107° |
| 2026-05-04 17:11 | 37.06519 | 23.43779 | 35147 ft | 513 kts | 107° |
| 2026-05-04 17:12 | 37.02596 | 23.56232 | 35126 ft | 513 kts | 107° |
| 2026-05-04 17:13 | 36.96006 | 23.77012 | 35157 ft | 514 kts | 107° |
| 2026-05-04 17:14 | 36.90719 | 23.93594 | 35137 ft | 514 kts | 107° |
| 2026-05-04 17:15 | 36.86717 | 24.06042 | 35135 ft | 514 kts | 108° |
| 2026-05-04 17:16 | 36.81374 | 24.22624 | 35142 ft | 513 kts | 107° |
| 2026-05-04 17:17 | 36.76028 | 24.39134 | 35160 ft | 513 kts | 108° |
| 2026-05-04 17:18 | 36.70657 | 24.55617 | 35125 ft | 513 kts | 108° |
| 2026-05-04 17:19 | 36.65254 | 24.72081 | 35124 ft | 514 kts | 108° |
| 2026-05-04 17:20 | 36.59815 | 24.88552 | 35123 ft | 514 kts | 108° |
| 2026-05-04 17:20 | 36.55698 | 25.00908 | 35138 ft | 515 kts | 108° |
| 2026-05-04 17:21 | 36.50229 | 25.17329 | 35141 ft | 513 kts | 108° |
| 2026-05-04 17:22 | 36.47496 | 25.25526 | 35134 ft | 513 kts | 108° |
| 2026-05-04 17:23 | 36.41983 | 25.41922 | 35140 ft | 512 kts | 109° |
| 2026-05-04 17:24 | 36.37864 | 25.54118 | 35135 ft | 511 kts | 109° |
| 2026-05-04 17:25 | 36.32372 | 25.70364 | 35147 ft | 510 kts | 109° |
| 2026-05-04 17:26 | 36.26861 | 25.86539 | 35126 ft | 508 kts | 110° |
| 2026-05-04 17:27 | 36.19954 | 26.06664 | 35126 ft | 507 kts | 110° |
| 2026-05-04 17:28 | 36.14433 | 26.22691 | 35118 ft | 506 kts | 110° |
| 2026-05-04 17:29 | 36.06118 | 26.46621 | 35116 ft | 503 kts | 110° |
| 2026-05-04 17:31 | 35.99150 | 26.66563 | 35073 ft | 507 kts | 111° |
| 2026-05-04 17:32 | 35.92596 | 26.85194 | 35078 ft | 508 kts | 111° |
| 2026-05-04 17:33 | 35.86951 | 27.01173 | 35093 ft | 507 kts | 111° |
| 2026-05-04 17:34 | 35.81276 | 27.17096 | 35081 ft | 507 kts | 111° |
| 2026-05-04 17:35 | 35.74166 | 27.36986 | 35059 ft | 508 kts | 112° |
| 2026-05-04 17:36 | 35.71296 | 27.44981 | 35060 ft | 508 kts | 112° |
| 2026-05-04 17:36 | 35.68454 | 27.52888 | 35071 ft | 508 kts | 112° |
| 2026-05-04 17:37 | 35.65564 | 27.60861 | 35063 ft | 507 kts | 112° |
| 2026-05-04 17:37 | 35.62691 | 27.68798 | 35062 ft | 507 kts | 112° |
| 2026-05-04 17:38 | 35.59825 | 27.76714 | 35057 ft | 507 kts | 113° |
| 2026-05-04 17:38 | 35.56943 | 27.84612 | 35050 ft | 507 kts | 113° |
| 2026-05-04 17:39 | 35.52611 | 27.96454 | 35046 ft | 507 kts | 113° |
| 2026-05-04 17:39 | 35.49724 | 28.04347 | 35046 ft | 507 kts | 113° |
| 2026-05-04 17:40 | 35.46835 | 28.12223 | 35048 ft | 507 kts | 113° |
| 2026-05-04 17:40 | 35.43937 | 28.20111 | 35039 ft | 507 kts | 113° |
| 2026-05-04 17:41 | 35.41038 | 28.27973 | 35039 ft | 507 kts | 114° |
| 2026-05-04 17:41 | 35.38117 | 28.35863 | 35034 ft | 507 kts | 114° |
| 2026-05-04 17:42 | 35.35204 | 28.43711 | 35028 ft | 507 kts | 114° |
| 2026-05-04 17:42 | 35.32267 | 28.51600 | 35001 ft | 509 kts | 114° |
| 2026-05-04 17:43 | 35.29328 | 28.59496 | 34997 ft | 510 kts | 114° |
| 2026-05-04 17:43 | 35.26378 | 28.67397 | 34990 ft | 511 kts | 114° |
| 2026-05-04 17:44 | 35.23415 | 28.75317 | 34992 ft | 512 kts | 114° |
| 2026-05-04 17:44 | 35.20435 | 28.83291 | 34988 ft | 513 kts | 115° |
| 2026-05-04 17:45 | 35.17453 | 28.91222 | 34996 ft | 514 kts | 115° |
| 2026-05-04 17:45 | 35.14452 | 28.99172 | 35005 ft | 514 kts | 115° |
| 2026-05-04 17:46 | 35.11457 | 29.07083 | 35000 ft | 514 kts | 115° |
| 2026-05-04 17:46 | 35.08443 | 29.15012 | 34996 ft | 515 kts | 115° |
| 2026-05-04 17:47 | 35.05428 | 29.22920 | 34997 ft | 515 kts | 115° |
| 2026-05-04 17:47 | 35.02401 | 29.30867 | 35002 ft | 515 kts | 115° |
| 2026-05-04 17:48 | 34.99384 | 29.38782 | 34997 ft | 515 kts | 115° |
| 2026-05-04 17:48 | 34.96367 | 29.46692 | 34996 ft | 515 kts | 115° |
| 2026-05-04 17:49 | 34.93331 | 29.54608 | 34981 ft | 515 kts | 116° |
| 2026-05-04 17:49 | 34.90295 | 29.62494 | 34973 ft | 516 kts | 116° |
| 2026-05-04 17:50 | 34.87240 | 29.70407 | 34975 ft | 517 kts | 116° |
| 2026-05-04 17:50 | 34.84172 | 29.78343 | 34974 ft | 517 kts | 116° |
| 2026-05-04 17:51 | 34.81082 | 29.86313 | 34974 ft | 517 kts | 116° |
| 2026-05-04 17:51 | 34.78033 | 29.94176 | 34975 ft | 518 kts | 116° |
| 2026-05-04 17:52 | 34.74777 | 30.01968 | 34972 ft | 516 kts | 124° |
| 2026-05-04 17:52 | 34.70969 | 30.09429 | 34972 ft | 516 kts | 124° |
| 2026-05-04 17:53 | 34.67211 | 30.16811 | 34978 ft | 517 kts | 124° |
| 2026-05-04 17:53 | 34.63413 | 30.24287 | 34943 ft | 518 kts | 124° |
| 2026-05-04 17:54 | 34.59633 | 30.31687 | 34947 ft | 520 kts | 124° |
| 2026-05-04 17:54 | 34.55790 | 30.39192 | 34953 ft | 521 kts | 124° |
| 2026-05-04 17:55 | 34.51957 | 30.46663 | 34958 ft | 522 kts | 124° |
| 2026-05-04 17:55 | 34.48115 | 30.54143 | 34964 ft | 523 kts | 125° |
| 2026-05-04 17:56 | 34.44259 | 30.61621 | 34975 ft | 523 kts | 125° |
| 2026-05-04 17:56 | 34.40399 | 30.69116 | 34977 ft | 523 kts | 124° |
| 2026-05-04 17:57 | 34.36553 | 30.76577 | 34974 ft | 524 kts | 125° |
| 2026-05-04 17:57 | 34.32685 | 30.84042 | 34980 ft | 523 kts | 125° |
| 2026-05-04 17:58 | 34.28805 | 30.91502 | 34979 ft | 523 kts | 125° |
| 2026-05-04 17:58 | 34.26851 | 30.95247 | 34988 ft | 523 kts | 125° |
| 2026-05-04 17:59 | 34.24455 | 30.99838 | 34978 ft | 524 kts | 125° |
| 2026-05-04 18:00 | 34.19318 | 31.09716 | 34979 ft | 524 kts | 125° |
| 2026-05-04 18:00 | 34.15441 | 31.17146 | 34981 ft | 524 kts | 125° |
| 2026-05-04 18:01 | 34.11545 | 31.24575 | 34974 ft | 524 kts | 126° |
| 2026-05-04 18:01 | 34.07640 | 31.31995 | 34981 ft | 524 kts | 126° |
| 2026-05-04 18:02 | 34.01762 | 31.43147 | 34986 ft | 525 kts | 126° |
| 2026-05-04 18:02 | 33.97849 | 31.50569 | 34988 ft | 525 kts | 126° |
| 2026-05-04 18:03 | 33.93944 | 31.57959 | 34986 ft | 524 kts | 126° |
| 2026-05-04 18:03 | 33.90017 | 31.65356 | 34990 ft | 524 kts | 126° |
| 2026-05-04 18:04 | 33.86075 | 31.72773 | 34998 ft | 524 kts | 126° |
| 2026-05-04 18:05 | 33.80195 | 31.83829 | 34992 ft | 524 kts | 127° |
| 2026-05-04 18:05 | 33.76254 | 31.91209 | 34992 ft | 524 kts | 127° |
| 2026-05-04 18:06 | 33.70992 | 32.01054 | 34995 ft | 524 kts | 127° |
| 2026-05-04 18:06 | 33.67039 | 32.08413 | 34945 ft | 524 kts | 128° |
| 2026-05-04 18:07 | 33.63098 | 32.15742 | 34971 ft | 524 kts | 128° |
| 2026-05-04 18:07 | 33.59127 | 32.23107 | 34985 ft | 524 kts | 128° |
| 2026-05-04 18:08 | 33.55169 | 32.30432 | 34994 ft | 523 kts | 128° |
| 2026-05-04 18:08 | 33.51218 | 32.37742 | 34982 ft | 523 kts | 128° |
| 2026-05-04 18:09 | 33.43293 | 32.52354 | 35008 ft | 522 kts | 129° |
| 2026-05-04 18:10 | 33.39333 | 32.59629 | 34994 ft | 517 kts | 129° |
| 2026-05-04 18:10 | 33.37360 | 32.63259 | 34755 ft | 507 kts | 129° |
| 2026-05-04 18:10 | 33.35441 | 32.66784 | 34296 ft | 504 kts | 129° |
| 2026-05-04 18:11 | 33.33516 | 32.70301 | 33693 ft | 504 kts | 130° |
| 2026-05-04 18:11 | 33.31600 | 32.73787 | 33137 ft | 502 kts | 130° |
| 2026-05-04 18:11 | 33.29681 | 32.77274 | 32593 ft | 499 kts | 130° |
| 2026-05-04 18:11 | 33.27783 | 32.80727 | 32032 ft | 498 kts | 130° |
| 2026-05-04 18:12 | 33.25888 | 32.84184 | 31479 ft | 496 kts | 130° |
| 2026-05-04 18:12 | 33.24006 | 32.87622 | 30939 ft | 494 kts | 130° |
| 2026-05-04 18:12 | 33.22128 | 32.91052 | 30394 ft | 492 kts | 130° |
| 2026-05-04 18:12 | 33.20258 | 32.94461 | 29815 ft | 489 kts | 130° |
| 2026-05-04 18:13 | 33.18402 | 32.97843 | 29324 ft | 485 kts | 130° |
| 2026-05-04 18:13 | 33.16561 | 33.01190 | 28810 ft | 480 kts | 130° |
| 2026-05-04 18:13 | 33.12921 | 33.07794 | 27838 ft | 472 kts | 130° |
| 2026-05-04 18:14 | 33.11120 | 33.11051 | 27363 ft | 469 kts | 130° |
| 2026-05-04 18:14 | 33.09328 | 33.14289 | 26886 ft | 466 kts | 130° |
| 2026-05-04 18:14 | 33.07551 | 33.17499 | 26404 ft | 463 kts | 130° |
| 2026-05-04 18:15 | 33.04023 | 33.23870 | 25437 ft | 459 kts | 130° |
| 2026-05-04 18:15 | 33.00523 | 33.30187 | 24545 ft | 453 kts | 130° |
| 2026-05-04 18:15 | 32.98784 | 33.33319 | 24086 ft | 452 kts | 130° |
| 2026-05-04 18:16 | 32.97060 | 33.36423 | 23730 ft | 448 kts | 130° |
| 2026-05-04 18:16 | 32.95347 | 33.39505 | 23255 ft | 445 kts | 130° |
| 2026-05-04 18:16 | 32.93639 | 33.42575 | 22794 ft | 442 kts | 130° |
| 2026-05-04 18:17 | 32.90275 | 33.48607 | 21918 ft | 434 kts | 130° |
| 2026-05-04 18:17 | 32.88593 | 33.51624 | 21486 ft | 430 kts | 129° |
| 2026-05-04 18:17 | 32.85341 | 33.57459 | 20635 ft | 422 kts | 129° |
| 2026-05-04 18:18 | 32.83705 | 33.60390 | 20194 ft | 418 kts | 129° |
| 2026-05-04 18:18 | 32.81995 | 33.63135 | 19770 ft | 408 kts | 138° |
| 2026-05-04 18:18 | 32.80058 | 33.65552 | 19350 ft | 402 kts | 140° |
| 2026-05-04 18:18 | 32.78120 | 33.67938 | 18922 ft | 399 kts | 140° |
| 2026-05-04 18:19 | 32.74272 | 33.72669 | 17842 ft | 399 kts | 141° |
| 2026-05-04 18:19 | 32.72348 | 33.75036 | 17349 ft | 397 kts | 141° |
| 2026-05-04 18:19 | 32.70441 | 33.77390 | 16913 ft | 393 kts | 140° |
| 2026-05-04 18:20 | 32.68556 | 33.79718 | 16499 ft | 389 kts | 140° |
| 2026-05-04 18:20 | 32.66687 | 33.82021 | 16072 ft | 385 kts | 140° |
| 2026-05-04 18:20 | 32.64837 | 33.84295 | 15661 ft | 381 kts | 140° |
| 2026-05-04 18:20 | 32.63006 | 33.86543 | 15253 ft | 377 kts | 139° |
| 2026-05-04 18:21 | 32.61194 | 33.88769 | 14870 ft | 373 kts | 139° |
| 2026-05-04 18:21 | 32.59398 | 33.90967 | 14491 ft | 369 kts | 139° |
| 2026-05-04 18:21 | 32.57619 | 33.93144 | 14112 ft | 366 kts | 139° |
| 2026-05-04 18:21 | 32.55854 | 33.95301 | 13731 ft | 362 kts | 138° |
| 2026-05-04 18:22 | 32.54121 | 33.97442 | 13273 ft | 360 kts | 138° |
| 2026-05-04 18:22 | 32.52406 | 33.99588 | 12843 ft | 357 kts | 137° |
| 2026-05-04 18:22 | 32.50709 | 34.01721 | 12423 ft | 354 kts | 137° |
| 2026-05-04 18:22 | 32.49026 | 34.03838 | 12027 ft | 351 kts | 137° |
| 2026-05-04 18:23 | 32.47358 | 34.05926 | 11677 ft | 347 kts | 137° |
| 2026-05-04 18:23 | 32.45713 | 34.07981 | 11414 ft | 341 kts | 137° |
| 2026-05-04 18:23 | 32.44131 | 34.10031 | 11181 ft | 337 kts | 131° |
| 2026-05-04 18:23 | 32.42923 | 34.12394 | 10926 ft | 335 kts | 116° |
| 2026-05-04 18:24 | 32.42222 | 34.15049 | 10657 ft | 333 kts | 103° |
| 2026-05-04 18:24 | 32.41759 | 34.17680 | 10397 ft | 329 kts | 103° |
| 2026-05-04 18:24 | 32.41289 | 34.20318 | 10152 ft | 326 kts | 103° |
| 2026-05-04 18:24 | 32.40817 | 34.22947 | 9872 ft | 321 kts | 104° |
| 2026-05-04 18:25 | 32.40353 | 34.25517 | 9614 ft | 317 kts | 104° |
| 2026-05-04 18:25 | 32.39889 | 34.28071 | 9351 ft | 315 kts | 104° |
| 2026-05-04 18:25 | 32.39431 | 34.30601 | 9109 ft | 314 kts | 104° |
| 2026-05-04 18:25 | 32.38975 | 34.33118 | 8894 ft | 312 kts | 104° |
| 2026-05-04 18:26 | 32.38518 | 34.35630 | 8800 ft | 313 kts | 104° |
| 2026-05-04 18:26 | 32.38060 | 34.38145 | 8680 ft | 312 kts | 104° |
| 2026-05-04 18:26 | 32.37602 | 34.40653 | 8561 ft | 312 kts | 104° |
| 2026-05-04 18:26 | 32.37145 | 34.43154 | 8435 ft | 311 kts | 104° |
| 2026-05-04 18:27 | 32.36691 | 34.45646 | 8311 ft | 310 kts | 104° |
| 2026-05-04 18:27 | 32.36237 | 34.48141 | 8186 ft | 310 kts | 104° |
| 2026-05-04 18:27 | 32.35731 | 34.50600 | 8067 ft | 307 kts | 112° |
| 2026-05-04 18:27 | 32.34818 | 34.52853 | 7946 ft | 301 kts | 127° |
| 2026-05-04 18:28 | 32.33512 | 34.54751 | 7879 ft | 296 kts | 139° |
| 2026-05-04 18:28 | 32.32079 | 34.56491 | 7801 ft | 295 kts | 139° |
| 2026-05-04 18:28 | 32.30655 | 34.58237 | 7674 ft | 294 kts | 139° |
| 2026-05-04 18:28 | 32.29240 | 34.59978 | 7558 ft | 294 kts | 139° |
| 2026-05-04 18:29 | 32.27824 | 34.61719 | 7432 ft | 293 kts | 139° |
| 2026-05-04 18:29 | 32.26411 | 34.63454 | 7305 ft | 293 kts | 139° |
| 2026-05-04 18:29 | 32.25002 | 34.65183 | 7182 ft | 292 kts | 139° |
| 2026-05-04 18:29 | 32.23590 | 34.66912 | 7054 ft | 292 kts | 139° |
| 2026-05-04 18:30 | 32.20795 | 34.70343 | 6952 ft | 290 kts | 139° |
| 2026-05-04 18:30 | 32.19404 | 34.72049 | 6829 ft | 288 kts | 139° |
| 2026-05-04 18:30 | 32.18009 | 34.73753 | 6707 ft | 288 kts | 139° |
| 2026-05-04 18:31 | 32.16613 | 34.75457 | 6591 ft | 289 kts | 138° |
| 2026-05-04 18:31 | 32.15398 | 34.77367 | 6475 ft | 294 kts | 123° |
| 2026-05-04 18:31 | 32.14507 | 34.79551 | 6344 ft | 295 kts | 118° |
| 2026-05-04 18:31 | 32.13647 | 34.81746 | 6214 ft | 295 kts | 118° |
| 2026-05-04 18:32 | 32.12775 | 34.83966 | 6078 ft | 294 kts | 118° |
| 2026-05-04 18:32 | 32.11916 | 34.86145 | 5954 ft | 293 kts | 118° |
| 2026-05-04 18:32 | 32.11057 | 34.88315 | 5999 ft | 293 kts | 118° |
| 2026-05-04 18:32 | 32.10190 | 34.90496 | 6009 ft | 294 kts | 118° |
| 2026-05-04 18:33 | 32.09323 | 34.92682 | 6005 ft | 294 kts | 118° |
| 2026-05-04 18:33 | 32.08460 | 34.94860 | 6015 ft | 294 kts | 118° |
| 2026-05-04 18:33 | 32.07597 | 34.97043 | 6011 ft | 293 kts | 118° |
| 2026-05-04 18:33 | 32.06732 | 34.99223 | 6013 ft | 294 kts | 118° |
| 2026-05-04 18:34 | 32.05860 | 35.01411 | 6013 ft | 296 kts | 118° |
| 2026-05-04 18:34 | 32.04985 | 35.03608 | 6008 ft | 297 kts | 118° |
| 2026-05-04 18:34 | 32.04106 | 35.05821 | 5906 ft | 297 kts | 117° |
| 2026-05-04 18:34 | 32.03236 | 35.08020 | 5772 ft | 296 kts | 117° |
| 2026-05-04 18:35 | 32.02366 | 35.10217 | 5640 ft | 295 kts | 117° |
| 2026-05-04 18:35 | 32.01511 | 35.12374 | 5506 ft | 284 kts | 117° |
| 2026-05-04 18:35 | 32.00555 | 35.14296 | 5373 ft | 260 kts | 135° |
| 2026-05-04 18:35 | 31.99221 | 35.15616 | 5257 ft | 243 kts | 156° |
| 2026-05-04 18:36 | 31.97713 | 35.16302 | 5130 ft | 226 kts | 175° |
| 2026-05-04 18:36 | 31.96200 | 35.16418 | 5002 ft | 213 kts | 188° |
| 2026-05-04 18:36 | 31.94740 | 35.16327 | 4887 ft | 206 kts | 196° |
| 2026-05-04 18:36 | 31.93368 | 35.15926 | 4737 ft | 204 kts | 201° |
| 2026-05-04 18:37 | 31.92018 | 35.15477 | 4660 ft | 198 kts | 208° |
| 2026-05-04 18:37 | 31.90856 | 35.14683 | 4658 ft | 192 kts | 226° |
| 2026-05-04 18:37 | 31.89994 | 35.13518 | 4652 ft | 187 kts | 243° |
| 2026-05-04 18:37 | 31.89500 | 35.12134 | 4576 ft | 183 kts | 259° |
| 2026-05-04 18:38 | 31.89399 | 35.10657 | 4424 ft | 181 kts | 276° |
| 2026-05-04 18:38 | 31.89700 | 35.09232 | 4217 ft | 181 kts | 292° |
| 2026-05-04 18:38 | 31.90328 | 35.07949 | 3977 ft | 182 kts | 299° |
| 2026-05-04 18:38 | 31.90776 | 35.07093 | 3807 ft | 183 kts | 299° |
| 2026-05-04 18:39 | 31.91448 | 35.05807 | 3546 ft | 185 kts | 299° |
| 2026-05-04 18:39 | 31.92118 | 35.04527 | 3300 ft | 182 kts | 299° |
| 2026-05-04 18:39 | 31.92771 | 35.03278 | 3021 ft | 177 kts | 299° |
| 2026-05-04 18:39 | 31.93394 | 35.02087 | 2777 ft | 165 kts | 299° |
| 2026-05-04 18:40 | 31.93967 | 35.00989 | 2532 ft | 151 kts | 300° |
| 2026-05-04 18:40 | 31.94494 | 34.99980 | 2320 ft | 143 kts | 297° |
| 2026-05-04 18:40 | 31.95004 | 34.99002 | 2157 ft | 138 kts | 299° |
| 2026-05-04 18:40 | 31.95497 | 34.98056 | 1951 ft | 134 kts | 300° |
| 2026-05-04 18:41 | 31.95985 | 34.97121 | 1755 ft | 134 kts | 300° |
| 2026-05-04 18:41 | 31.96472 | 34.96187 | 1568 ft | 134 kts | 300° |
| 2026-05-04 18:41 | 31.96964 | 34.95260 | 1327 ft | 133 kts | 300° |
| 2026-05-04 18:41 | 31.97447 | 34.94324 | 1137 ft | 133 kts | 298° |
| 2026-05-04 18:42 | 31.97933 | 34.93393 | 947 ft | 133 kts | 299° |
| 2026-05-04 18:42 | 31.98407 | 34.92460 | 741 ft | 133 kts | 301° |
| 2026-05-04 18:42 | 31.98914 | 34.91518 | 567 ft | 136 kts | 300° |
| 2026-05-04 18:42 | 31.99399 | 34.90572 | 413 ft | 134 kts | 298° |
| 2026-05-04 18:43 | 31.99882 | 34.89647 | 222 ft | 132 kts | 298° |
| 2026-05-04 18:43 | 32.00342 | 34.88763 | 121 ft | 116 kts | 299° |
| 2026-05-04 18:43 | 32.00678 | 34.88106 | 117 ft | 68 kts | 302° |
| 2026-05-04 18:43 | 32.00845 | 34.87782 | 118 ft | 34 kts | 301° |
| 2026-05-04 18:44 | 32.00962 | 34.87551 | 119 ft | 32 kts | 300° |
| 2026-05-04 18:44 | 32.01026 | 34.87413 | 121 ft | 28 kts | 294° |
| 2026-05-04 18:44 | 32.01063 | 34.87163 | 120 ft | 19 kts | 273° |
| 2026-05-04 18:44 | 32.01049 | 34.87056 | 116 ft | 13 kts | 225° |
| 2026-05-04 18:45 | 32.00994 | 34.87075 | 118 ft | 9 kts | 125° |
| 2026-05-04 18:45 | 32.00952 | 34.87157 | 119 ft | 8 kts | 120° |
| 2026-05-04 18:45 | 32.00920 | 34.87223 | 117 ft | 10 kts | 120° |
| 2026-05-04 18:45 | 32.00885 | 34.87291 | 119 ft | 9 kts | 120° |
| 2026-05-04 18:46 | 32.00851 | 34.87359 | 119 ft | 11 kts | 121° |
| 2026-05-04 18:46 | 32.00806 | 34.87445 | 117 ft | 15 kts | 122° |
| 2026-05-04 18:46 | 32.00746 | 34.87559 | 118 ft | 17 kts | 122° |
| 2026-05-04 18:46 | 32.00683 | 34.87676 | 119 ft | 13 kts | 122° |
| 2026-05-04 18:47 | 32.00612 | 34.87719 | 119 ft | 14 kts | 200° |
| 2026-05-04 18:47 | 32.00544 | 34.87641 | 119 ft | 14 kts | 255° |
| 2026-05-04 18:47 | 32.00550 | 34.87552 | 119 ft | 6 kts | 280° |
| 2026-05-04 18:47 | 32.00554 | 34.87522 | 119 ft | 0 kts | 279° |
| 2026-05-04 18:55 | 32.00554 | 34.87523 | 119 ft | 0 kts | 279° |